createdAt,value
2022-10-05T00:00:06.596Z,10.32
2022-10-05T00:02:34.505Z,10.32
2022-10-05T00:05:02.048Z,10.32
2022-10-05T00:07:30.385Z,10.30
2022-10-05T00:09:59.823Z,10.31
2022-10-05T00:12:30.062Z,10.28
2022-10-05T00:15:01.052Z,10.29
2022-10-05T00:17:30.541Z,10.31
2022-10-05T00:19:57.947Z,10.33
2022-10-05T00:22:32.017Z,10.31
2022-10-05T00:25:02.138Z,10.28
2022-10-05T00:27:36.822Z,10.34
2022-10-05T00:30:19.147Z,10.30
2022-10-05T00:32:47.242Z,10.28
2022-10-05T00:35:16.826Z,10.29
2022-10-05T00:37:44.755Z,10.24
2022-10-05T00:40:24.196Z,10.28
2022-10-05T00:43:10.499Z,10.30
2022-10-05T00:46:24.113Z,10.36
2022-10-05T00:49:22.345Z,10.32
2022-10-05T00:52:22.095Z,10.26
2022-10-05T00:55:11.115Z,10.19
2022-10-05T00:58:16.865Z,10.14
2022-10-05T01:00:53.167Z,10.07
2022-10-05T01:03:51.095Z,10.05
2022-10-05T01:06:24.463Z,10.08
2022-10-05T01:09:19.783Z,10.06
2022-10-05T01:12:01.141Z,10.02
2022-10-05T01:14:40.157Z,9.98
2022-10-05T01:17:24.275Z,9.94
2022-10-05T01:20:24.241Z,9.91
2022-10-05T01:23:27.095Z,9.92
2022-10-05T01:26:03.766Z,9.92
2022-10-05T01:29:12.956Z,9.93
2022-10-05T01:32:02.740Z,9.96
2022-10-05T01:34:35.798Z,9.95
2022-10-05T01:37:23.964Z,9.93
2022-10-05T01:39:59.446Z,9.92
2022-10-05T01:42:36.774Z,9.84
2022-10-05T01:45:21.174Z,9.86
2022-10-05T01:48:04.409Z,9.83
2022-10-05T01:50:53.334Z,9.76
2022-10-05T01:53:38.693Z,9.72
2022-10-05T01:56:24.497Z,9.71
2022-10-05T01:58:55.000Z,9.69
2022-10-05T02:02:07.807Z,9.62
2022-10-05T02:05:00.811Z,9.59
2022-10-05T02:07:31.105Z,9.58
2022-10-05T02:10:12.293Z,9.60
2022-10-05T02:12:41.219Z,9.65
2022-10-05T02:15:19.752Z,9.71
2022-10-05T02:17:54.842Z,9.64
2022-10-05T02:20:27.899Z,9.63
2022-10-05T02:23:00.694Z,9.59
2022-10-05T02:25:33.473Z,9.60
2022-10-05T02:28:30.027Z,9.60
2022-10-05T02:31:07.978Z,9.60
2022-10-05T02:33:36.243Z,9.62
2022-10-05T02:36:29.842Z,9.64
2022-10-05T02:39:07.474Z,9.61
2022-10-05T02:41:58.564Z,9.60
2022-10-05T02:44:55.344Z,9.61
2022-10-05T02:47:29.867Z,9.59
2022-10-05T02:50:03.501Z,9.56
2022-10-05T02:52:53.263Z,9.52
2022-10-05T02:55:34.095Z,9.49
2022-10-05T02:58:13.789Z,9.47
2022-10-05T03:00:48.190Z,9.50
2022-10-05T03:03:27.834Z,9.51
2022-10-05T03:06:01.011Z,9.49
2022-10-05T03:08:52.950Z,9.49
2022-10-05T03:11:52.773Z,9.39
2022-10-05T03:14:37.899Z,9.38
2022-10-05T03:17:15.302Z,9.36
2022-10-05T03:20:10.813Z,9.43
2022-10-05T03:23:07.714Z,9.42
2022-10-05T03:25:45.463Z,9.35
2022-10-05T03:28:36.177Z,9.32
2022-10-05T03:31:25.949Z,9.37
2022-10-05T03:34:00.822Z,9.42
2022-10-05T03:36:49.822Z,9.45
2022-10-05T03:39:22.130Z,9.44
2022-10-05T03:42:03.502Z,9.48
2022-10-05T03:44:45.053Z,9.49
2022-10-05T03:47:40.003Z,9.48
2022-10-05T03:50:25.640Z,9.46
2022-10-05T03:53:07.002Z,9.41
2022-10-05T03:55:37.501Z,9.42
2022-10-05T03:58:20.598Z,9.38
2022-10-05T04:00:53.980Z,9.41
2022-10-05T04:03:24.829Z,9.43
2022-10-05T04:06:01.143Z,9.47
2022-10-05T04:09:14.472Z,9.49
2022-10-05T04:12:02.357Z,9.51
2022-10-05T04:14:37.164Z,9.54
2022-10-05T04:17:17.843Z,9.57
2022-10-05T04:20:22.608Z,9.60
2022-10-05T04:23:00.580Z,9.67
2022-10-05T04:25:39.782Z,9.67
2022-10-05T04:28:12.343Z,9.66
2022-10-05T04:30:43.672Z,9.65
2022-10-05T04:33:13.852Z,9.63
2022-10-05T04:36:18.401Z,9.70
2022-10-05T04:38:59.701Z,9.63
2022-10-05T04:42:04.912Z,9.56
2022-10-05T04:45:00.332Z,9.43
2022-10-05T04:47:36.771Z,9.44
2022-10-05T04:50:13.153Z,9.46
2022-10-05T04:53:34.832Z,9.37
2022-10-05T04:56:16.248Z,9.36
2022-10-05T04:58:54.281Z,9.37
2022-10-05T05:01:31.121Z,9.37
2022-10-05T05:04:39.189Z,9.32
2022-10-05T05:07:44.682Z,9.18
2022-10-05T05:10:49.898Z,9.01
2022-10-05T05:13:39.552Z,8.82
2022-10-05T05:16:37.958Z,8.70
2022-10-05T05:19:41.751Z,8.59
2022-10-05T05:22:34.412Z,8.72
2022-10-05T05:25:32.737Z,8.90
2022-10-05T05:28:32.558Z,8.98
2022-10-05T05:31:26.025Z,9.01
2022-10-05T05:34:10.544Z,9.05
2022-10-05T05:36:46.114Z,9.11
2022-10-05T05:39:36.522Z,9.16
2022-10-05T05:42:11.231Z,9.20
2022-10-05T05:44:48.119Z,9.31
2022-10-05T05:47:38.002Z,9.35
2022-10-05T05:50:25.771Z,9.40
2022-10-05T05:53:05.897Z,9.55
2022-10-05T05:55:40.191Z,9.79
2022-10-05T05:58:17.553Z,9.96
2022-10-05T06:00:48.850Z,10.02
2022-10-05T06:03:30.507Z,10.04
2022-10-05T06:06:04.326Z,10.10
2022-10-05T06:08:51.487Z,10.14
2022-10-05T06:11:40.067Z,10.13
2022-10-05T06:14:24.251Z,10.21
2022-10-05T06:17:01.271Z,10.38
2022-10-05T06:19:33.007Z,10.55
2022-10-05T06:22:35.781Z,10.77
2022-10-05T06:25:13.562Z,11.17
2022-10-05T06:28:08.458Z,11.52
2022-10-05T06:30:51.352Z,11.77
2022-10-05T06:33:34.181Z,12.00
2022-10-05T06:36:16.301Z,12.25
2022-10-05T06:39:22.596Z,12.65
2022-10-05T06:42:18.070Z,13.08
2022-10-05T06:45:54.629Z,14.05
2022-10-05T06:48:46.690Z,14.36
2022-10-05T06:51:38.501Z,14.73
2022-10-05T06:54:41.529Z,14.77
2022-10-05T06:57:42.680Z,14.90
2022-10-05T07:00:27.559Z,14.71
2022-10-05T07:03:13.356Z,14.88
2022-10-05T07:05:57.849Z,15.01
2022-10-05T07:08:34.337Z,15.56
2022-10-05T07:11:34.200Z,15.72
2022-10-05T07:14:05.560Z,15.85
2022-10-05T07:16:49.443Z,16.35
2022-10-05T07:19:24.905Z,16.44
2022-10-05T07:21:55.616Z,16.29
2022-10-05T07:24:34.849Z,16.24
2022-10-05T07:27:06.538Z,15.29
2022-10-05T07:30:07.955Z,14.35
2022-10-05T07:32:55.546Z,14.78
2022-10-05T07:35:50.486Z,15.21
2022-10-05T07:38:25.155Z,15.64
2022-10-05T07:40:59.550Z,16.00
2022-10-05T07:44:02.592Z,16.02
2022-10-05T07:46:46.898Z,16.16
2022-10-05T07:49:42.670Z,16.23
2022-10-05T07:52:41.618Z,16.31
2022-10-05T07:55:23.288Z,16.31
2022-10-05T07:58:08.645Z,16.19
2022-10-05T08:00:56.160Z,16.34
2022-10-05T08:03:36.225Z,16.90
2022-10-05T08:06:05.925Z,17.14
2022-10-05T08:08:42.905Z,17.39
2022-10-05T08:11:23.089Z,17.67
2022-10-05T08:14:06.370Z,17.64
2022-10-05T08:16:38.626Z,17.82
2022-10-05T08:19:14.489Z,17.99
2022-10-05T08:21:47.962Z,18.01
2022-10-05T08:24:54.110Z,18.05
2022-10-05T08:28:03.605Z,18.12
2022-10-05T08:30:35.860Z,18.30
2022-10-05T08:33:14.885Z,18.47
2022-10-05T08:35:45.054Z,18.71
2022-10-05T08:38:33.774Z,18.84
2022-10-05T08:41:21.229Z,18.82
2022-10-05T08:44:07.187Z,18.95
2022-10-05T08:46:56.531Z,19.29
2022-10-05T08:50:01.826Z,19.41
2022-10-05T08:52:36.625Z,19.47
2022-10-05T08:55:10.267Z,19.56
2022-10-05T08:57:55.378Z,19.55
2022-10-05T09:00:24.418Z,19.44
2022-10-05T09:03:25.828Z,19.21
2022-10-05T09:06:05.125Z,19.16
2022-10-05T09:08:44.864Z,19.00
2022-10-05T09:11:35.458Z,19.00
2022-10-05T09:15:01.480Z,19.00
2022-10-05T09:17:59.724Z,18.79
2022-10-05T09:20:38.918Z,19.02
2022-10-05T09:23:14.977Z,18.99
2022-10-05T09:25:52.536Z,18.84
2022-10-05T09:28:23.045Z,18.90
2022-10-05T09:30:58.050Z,19.06
2022-10-05T09:33:53.930Z,19.28
2022-10-05T09:36:27.540Z,19.56
2022-10-05T09:39:13.307Z,20.00
2022-10-05T09:41:55.998Z,20.31
2022-10-05T09:44:29.654Z,20.54
2022-10-05T09:47:41.528Z,20.50
2022-10-05T09:50:32.718Z,20.55
2022-10-05T09:53:21.514Z,19.96
2022-10-05T09:56:09.478Z,20.39
2022-10-05T09:59:07.514Z,20.46
2022-10-05T10:01:41.176Z,20.47
2022-10-05T10:04:24.846Z,20.35
2022-10-05T10:07:10.623Z,20.05
2022-10-05T10:09:50.058Z,19.97
2022-10-05T10:12:23.437Z,19.81
2022-10-05T10:15:01.876Z,19.77
2022-10-05T10:17:47.307Z,19.65
2022-10-05T10:20:35.616Z,19.66
2022-10-05T10:23:21.693Z,19.73
2022-10-05T10:26:11.918Z,19.70
2022-10-05T10:29:08.507Z,19.77
2022-10-05T10:32:02.062Z,19.82
2022-10-05T10:35:07.360Z,19.89
2022-10-05T10:37:52.906Z,19.71
2022-10-05T10:40:35.073Z,20.29
2022-10-05T10:43:40.129Z,20.23
2022-10-05T10:46:35.353Z,20.06
2022-10-05T10:49:15.807Z,19.83
2022-10-05T10:52:02.185Z,19.41
2022-10-05T10:54:49.147Z,18.99
2022-10-05T10:57:50.547Z,18.63
2022-10-05T11:00:33.264Z,18.38
2022-10-05T11:03:21.875Z,18.39
2022-10-05T11:10:03.283Z,18.38
2022-10-05T11:12:43.212Z,18.34
2022-10-05T11:15:43.400Z,18.42
2022-10-05T11:18:18.249Z,18.22
2022-10-05T11:21:23.217Z,18.31
2022-10-05T11:24:38.948Z,18.34
2022-10-05T11:30:31.308Z,17.76
2022-10-05T11:33:11.425Z,17.78
2022-10-05T11:35:41.886Z,17.41
2022-10-05T11:38:30.821Z,17.35
2022-10-05T11:41:07.233Z,17.72
2022-10-05T11:44:12.953Z,18.19
2022-10-05T11:47:08.885Z,18.54
2022-10-05T11:49:54.671Z,18.66
2022-10-05T11:52:42.470Z,18.71
2022-10-05T11:55:49.853Z,18.77
2022-10-05T11:58:26.345Z,18.75
2022-10-05T12:01:17.177Z,19.15
2022-10-05T12:03:59.645Z,19.25
2022-10-05T12:06:54.626Z,19.20
2022-10-05T12:09:40.498Z,19.12
2022-10-05T12:12:26.914Z,19.21
2022-10-05T12:15:04.622Z,19.17
2022-10-05T12:17:41.203Z,18.98
2022-10-05T12:20:21.008Z,19.11
2022-10-05T12:23:00.584Z,18.88
2022-10-05T12:26:01.551Z,18.85
2022-10-05T12:28:49.944Z,18.85
2022-10-05T12:31:20.503Z,18.83
2022-10-05T12:34:09.072Z,18.86
2022-10-05T12:37:08.290Z,19.07
2022-10-05T12:39:48.740Z,19.19
2022-10-05T12:42:30.042Z,19.43
2022-10-05T12:45:00.486Z,19.22
2022-10-05T12:47:56.000Z,19.42
2022-10-05T12:50:49.341Z,19.43
2022-10-05T12:53:54.312Z,19.16
2022-10-05T12:56:21.904Z,18.84
2022-10-05T12:58:59.441Z,18.97
2022-10-05T13:01:47.772Z,19.10
2022-10-05T13:04:22.007Z,18.98
2022-10-05T13:07:17.181Z,18.98
2022-10-05T13:10:03.256Z,18.82
2022-10-05T13:12:54.095Z,18.86
2022-10-05T13:15:28.870Z,18.73
2022-10-05T13:18:14.080Z,18.78
2022-10-05T13:20:52.011Z,18.79
2022-10-05T13:23:36.361Z,18.77
2022-10-05T13:26:08.091Z,18.73
2022-10-05T13:29:09.750Z,18.42
2022-10-05T13:31:55.640Z,18.39
2022-10-05T13:34:52.601Z,18.21
2022-10-05T13:38:16.802Z,18.19
2022-10-05T13:40:47.812Z,18.18
2022-10-05T13:43:39.650Z,18.07
2022-10-05T13:46:13.617Z,17.98
2022-10-05T13:48:54.211Z,18.05
2022-10-05T13:51:28.000Z,17.89
2022-10-05T13:54:14.490Z,17.88
2022-10-05T13:56:47.699Z,17.59
2022-10-05T13:59:36.581Z,17.80
2022-10-05T14:02:12.083Z,17.88
2022-10-05T14:05:14.223Z,17.80
2022-10-05T14:08:15.540Z,17.78
2022-10-05T14:10:46.348Z,17.72
2022-10-05T14:13:34.099Z,17.57
2022-10-05T14:16:13.802Z,17.68
2022-10-05T14:19:10.490Z,17.65
2022-10-05T14:21:58.696Z,17.61
2022-10-05T14:24:43.765Z,17.46
2022-10-05T14:27:36.570Z,17.40
2022-10-05T14:30:13.110Z,17.44
2022-10-05T14:32:51.579Z,17.30
2022-10-05T14:35:24.105Z,17.27
2022-10-05T14:37:58.653Z,17.13
2022-10-05T14:40:33.260Z,17.09
2022-10-05T14:43:21.116Z,17.01
2022-10-05T14:45:57.805Z,16.86
2022-10-05T14:48:30.150Z,16.98
2022-10-05T14:51:03.460Z,16.85
2022-10-05T14:53:38.789Z,16.88
2022-10-05T14:56:08.955Z,16.88
2022-10-05T14:59:11.359Z,16.86
2022-10-05T15:01:51.434Z,16.73
2022-10-05T15:04:37.088Z,16.48
2022-10-05T15:07:11.331Z,16.43
2022-10-05T15:10:01.739Z,16.34
2022-10-05T15:12:38.149Z,16.33
2022-10-05T15:15:25.528Z,16.34
2022-10-05T15:18:01.669Z,16.25
2022-10-05T15:20:47.398Z,16.31
2022-10-05T15:23:24.927Z,16.22
2022-10-05T15:25:56.820Z,16.04
2022-10-05T15:28:48.467Z,15.95
2022-10-05T15:31:30.160Z,16.04
2022-10-05T15:34:08.094Z,16.02
2022-10-05T15:37:01.889Z,15.91
2022-10-05T15:39:40.580Z,15.91
2022-10-05T15:42:15.377Z,15.91
2022-10-05T15:45:05.490Z,15.90
2022-10-05T15:47:50.061Z,15.87
2022-10-05T15:50:22.080Z,15.81
2022-10-05T15:53:20.049Z,15.73
2022-10-05T15:56:11.518Z,15.73
2022-10-05T15:58:53.145Z,15.72
2022-10-05T16:01:44.221Z,15.66
2022-10-05T16:04:30.339Z,15.50
2022-10-05T16:07:21.058Z,15.45
2022-10-05T16:10:02.458Z,15.44
2022-10-05T16:12:38.857Z,15.41
2022-10-05T16:15:26.401Z,15.40
2022-10-05T16:17:59.547Z,15.27
2022-10-05T16:20:50.308Z,15.29
2022-10-05T16:23:44.647Z,15.17
2022-10-05T16:26:32.799Z,15.11
2022-10-05T16:29:10.549Z,15.07
2022-10-05T16:31:44.154Z,15.04
2022-10-05T16:34:33.863Z,14.98
2022-10-05T16:37:23.768Z,14.91
2022-10-05T16:39:56.926Z,14.97
2022-10-05T16:42:30.757Z,14.93
2022-10-05T16:45:11.867Z,14.81
2022-10-05T16:48:00.873Z,14.84
2022-10-05T16:51:07.684Z,14.76
2022-10-05T16:53:47.464Z,14.73
2022-10-05T16:56:27.506Z,14.66
2022-10-05T16:59:04.486Z,14.61
2022-10-05T17:01:44.752Z,14.62
2022-10-05T17:04:31.624Z,14.62
2022-10-05T17:07:24.336Z,14.62
2022-10-05T17:10:01.123Z,14.62
2022-10-05T17:12:41.016Z,14.55
2022-10-05T17:15:33.085Z,14.56
2022-10-05T17:18:20.508Z,14.58
2022-10-05T17:21:02.686Z,14.57
2022-10-05T17:23:45.757Z,14.53
2022-10-05T17:26:33.306Z,14.53
2022-10-05T17:29:09.566Z,14.60
2022-10-05T17:32:11.417Z,14.66
2022-10-05T17:35:03.042Z,14.64
2022-10-05T17:37:37.473Z,14.66
2022-10-05T17:41:18.696Z,14.63
2022-10-05T17:44:13.713Z,14.64
2022-10-05T17:46:47.631Z,14.57
2022-10-05T17:49:23.604Z,14.58
2022-10-05T17:52:09.503Z,14.56
2022-10-05T17:55:09.052Z,14.57
2022-10-05T17:57:37.317Z,14.60
2022-10-05T18:00:09.557Z,14.64
2022-10-05T18:02:39.946Z,14.61
2022-10-05T18:05:12.898Z,14.63
2022-10-05T18:07:42.185Z,14.61
2022-10-05T18:10:12.308Z,14.61
2022-10-05T18:12:45.136Z,14.60
2022-10-05T18:15:25.016Z,14.56
2022-10-05T18:17:59.690Z,14.58
2022-10-05T18:20:32.068Z,14.59
2022-10-05T18:23:09.813Z,14.60
2022-10-05T18:26:13.772Z,14.63
2022-10-05T18:28:53.075Z,14.67
2022-10-05T18:31:52.835Z,14.65
2022-10-05T18:35:01.958Z,14.54
2022-10-05T18:37:54.717Z,14.41
2022-10-05T18:40:34.598Z,14.39
2022-10-05T18:43:11.854Z,14.32
2022-10-05T18:46:03.773Z,14.26
2022-10-05T18:48:38.826Z,14.20
2022-10-05T18:51:12.232Z,14.16
2022-10-05T18:53:49.577Z,14.07
2022-10-05T18:56:38.496Z,14.06
2022-10-05T18:59:05.995Z,14.03
2022-10-05T19:01:56.472Z,14.06
2022-10-05T19:04:47.472Z,14.09
2022-10-05T19:07:38.461Z,14.04
2022-10-05T19:10:25.636Z,13.96
2022-10-05T19:12:59.054Z,13.90
2022-10-05T19:15:49.177Z,13.89
2022-10-05T19:18:42.281Z,13.97
2022-10-05T19:21:37.935Z,14.05
2022-10-05T19:24:18.944Z,13.98
2022-10-05T19:27:07.456Z,13.93
2022-10-05T19:29:40.935Z,13.96
2022-10-05T19:32:34.156Z,13.94
2022-10-05T19:35:20.274Z,13.96
2022-10-05T19:37:50.676Z,14.01
2022-10-05T19:40:21.001Z,14.03
2022-10-05T19:43:03.624Z,13.96
2022-10-05T19:45:43.471Z,13.93
2022-10-05T19:48:36.431Z,13.99
2022-10-05T19:51:12.795Z,14.00
2022-10-05T19:53:47.207Z,14.00
2022-10-05T19:56:26.515Z,13.96
2022-10-05T19:58:56.634Z,14.04
2022-10-05T20:01:36.787Z,13.91
2022-10-05T20:04:05.465Z,13.86
2022-10-05T20:06:33.686Z,13.90
2022-10-05T20:09:19.403Z,13.83
2022-10-05T20:11:51.787Z,13.86
2022-10-05T20:14:31.365Z,13.81
2022-10-05T20:17:34.221Z,13.72
2022-10-05T20:20:25.658Z,13.69
2022-10-05T20:22:53.111Z,13.71
2022-10-05T20:25:20.511Z,13.74
2022-10-05T20:27:55.253Z,13.85
2022-10-05T20:30:28.096Z,13.95
2022-10-05T20:32:58.238Z,14.12
2022-10-05T20:35:29.625Z,14.21
2022-10-05T20:38:00.278Z,14.37
2022-10-05T20:40:29.338Z,14.64
2022-10-05T20:42:57.292Z,14.87
2022-10-05T20:45:25.010Z,14.98
2022-10-05T20:47:52.603Z,15.05
2022-10-05T20:50:23.014Z,15.16
2022-10-05T20:52:50.463Z,15.37
2022-10-05T20:55:17.967Z,15.32
2022-10-05T20:57:46.316Z,15.32
2022-10-05T21:00:14.040Z,15.31
2022-10-05T21:02:41.535Z,15.25
2022-10-05T21:05:09.808Z,15.36
2022-10-05T21:07:37.381Z,15.45
2022-10-05T21:10:05.298Z,15.51
2022-10-05T21:12:34.101Z,15.59
2022-10-05T21:15:04.810Z,15.66
2022-10-05T21:17:35.209Z,15.72
2022-10-05T21:20:02.806Z,15.86
2022-10-05T21:22:30.245Z,16.06
2022-10-05T21:24:58.535Z,16.07
2022-10-05T21:27:26.044Z,16.06
2022-10-05T21:29:53.583Z,16.20
2022-10-05T21:32:21.122Z,16.29
2022-10-05T21:34:48.525Z,16.51
2022-10-05T21:37:16.054Z,16.50
2022-10-05T21:39:43.724Z,16.49
2022-10-05T21:42:11.345Z,16.52
2022-10-05T21:44:38.820Z,16.46
2022-10-05T21:47:07.074Z,16.44
2022-10-05T21:49:36.184Z,16.38
2022-10-05T21:52:05.445Z,16.42
2022-10-05T21:54:34.069Z,16.47
2022-10-05T21:57:01.881Z,16.43
2022-10-05T21:59:33.944Z,16.42
2022-10-05T22:02:01.452Z,16.47
2022-10-05T22:04:29.063Z,16.45
2022-10-05T22:06:56.867Z,16.46
2022-10-05T22:09:24.482Z,16.41
2022-10-05T22:11:52.260Z,16.47
2022-10-05T22:14:19.804Z,16.42
2022-10-05T22:16:47.693Z,16.47
2022-10-05T22:19:18.813Z,16.48
2022-10-05T22:21:46.692Z,16.52
2022-10-05T22:24:14.153Z,16.55
2022-10-05T22:26:46.103Z,16.61
2022-10-05T22:29:15.939Z,16.70
2022-10-05T22:31:45.440Z,16.83
2022-10-05T22:34:13.872Z,16.84
2022-10-05T22:36:41.942Z,16.89
2022-10-05T22:39:09.443Z,16.94
2022-10-05T22:41:36.931Z,16.96
2022-10-05T22:44:04.730Z,16.91
2022-10-05T22:46:32.618Z,16.82
2022-10-05T22:49:00.180Z,16.80
2022-10-05T22:51:27.732Z,16.77
2022-10-05T22:53:55.183Z,16.72
2022-10-05T22:56:22.831Z,16.65
2022-10-05T22:58:51.173Z,16.58
2022-10-05T23:01:20.493Z,16.52
2022-10-05T23:03:48.372Z,16.51
2022-10-05T23:06:20.674Z,16.54
2022-10-05T23:08:48.382Z,16.54
2022-10-05T23:11:19.064Z,16.52
2022-10-05T23:13:46.556Z,16.54
2022-10-05T23:16:20.305Z,16.47
2022-10-05T23:18:49.473Z,16.41
2022-10-05T23:21:18.662Z,16.40
2022-10-05T23:23:53.364Z,16.36
2022-10-05T23:26:25.303Z,16.21
2022-10-05T23:28:53.062Z,16.11
2022-10-05T23:31:23.422Z,16.11
2022-10-05T23:33:51.784Z,16.09
2022-10-05T23:36:25.642Z,16.05
2022-10-05T23:38:53.362Z,16.01
2022-10-05T23:41:21.372Z,16.01
2022-10-05T23:43:49.033Z,16.01
2022-10-05T23:46:17.824Z,16.00
2022-10-05T23:48:45.423Z,16.00
2022-10-05T23:51:14.543Z,15.94
2022-10-05T23:53:42.072Z,15.89
2022-10-05T23:56:09.529Z,15.82
2022-10-05T23:58:37.221Z,15.74
